Time;durP1;ratioP1;P1;durP2;ratioP2;P2;SDS_P1;SDS_P2;PMS_P1;PMS_P2;Temp;Humidity;BMP_temperature;BMP_pressure;BME280_temperature;BME280_humidity;BME280_pressure;Samples;Min_cycle;Max_cycle;Signal;HPM_P1;HPM_P2
2022/02/02 00:00:08;;;;;;;;;;;19.30;57.80;;;;;;5053003;28;1894;-70
2022/02/02 00:02:45;;;;;;;;;;;19.30;57.80;;;;;;5051900;28;1321;-70
2022/02/02 00:05:34;;;;;;;;;;;19.30;57.80;;;;;;5052594;28;1296;-70
2022/02/02 00:08:13;;;;;;;;;;;19.30;57.90;;;;;;5052748;28;1086;-71
2022/02/02 00:11:11;;;;;;;;;;;19.30;57.90;;;;;;5053096;28;1356;-69
2022/02/02 00:13:38;;;;;;;;;;;19.20;57.80;;;;;;5051610;28;1334;-69
2022/02/02 00:16:47;;;;;;;;;;;19.20;57.90;;;;;;5052580;28;1346;-70
2022/02/02 00:19:00;;;;;;;;;;;19.20;57.90;;;;;;5051284;28;1871;-69
2022/02/02 00:21:39;;;;;;;;;;;19.20;57.90;;;;;;5052885;28;1280;-69
2022/02/02 00:24:13;;;;;;;;;;;19.20;57.90;;;;;;5063160;22;2297;-70
2022/02/02 00:26:42;;;;;;;;;;;19.20;58.00;;;;;;5035782;28;2194;-70
2022/02/02 00:29:14;;;;;;;;;;;19.20;58.00;;;;;;5050330;28;1379;-70
2022/02/02 00:31:48;;;;;;;;;;;19.20;58.00;;;;;;5052733;28;1345;-70
2022/02/02 00:34:19;;;;;;;;;;;19.10;58.00;;;;;;5041321;28;1628;-70
2022/02/02 00:37:03;;;;;;;;;;;19.20;58.00;;;;;;5052308;28;1316;-70
2022/02/02 00:39:28;;;;;;;;;;;19.20;58.00;;;;;;5051274;28;1975;-69
2022/02/02 00:41:56;;;;;;;;;;;19.20;58.00;;;;;;5052548;28;1348;-70
2022/02/02 00:44:21;;;;;;;;;;;19.20;58.10;;;;;;5052588;28;1434;-70
2022/02/02 00:46:47;;;;;;;;;;;19.10;58.00;;;;;;5051073;28;1719;-70
2022/02/02 00:49:13;;;;;;;;;;;19.10;58.00;;;;;;5034909;28;1588;-69
2022/02/02 00:51:46;;;;;;;;;;;19.20;58.10;;;;;;5051033;28;1371;-70
2022/02/02 00:54:16;;;;;;;;;;;19.10;58.00;;;;;;5051112;28;1272;-70
2022/02/02 00:56:41;;;;;;;;;;;19.10;58.10;;;;;;5050871;28;1640;-70
2022/02/02 00:59:06;;;;;;;;;;;19.10;58.10;;;;;;5052347;28;1961;-70
2022/02/02 01:01:32;;;;;;;;;;;19.10;58.20;;;;;;5052102;28;1592;-70
2022/02/02 01:03:57;;;;;;;;;;;19.10;58.20;;;;;;5050758;28;1382;-70
2022/02/02 01:06:25;;;;;;;;;;;19.10;58.20;;;;;;5050697;28;1352;-69
2022/02/02 01:09:08;;;;;;;;;;;19.10;58.20;;;;;;5045960;28;1462;-70
2022/02/02 01:19:55;;;;;;;;;;;19.10;58.30;;;;;;5054795;28;1957;-70
2022/02/02 01:27:43;;;;;;;;;;;19.10;58.30;;;;;;5055935;28;1336;-70
2022/02/02 01:27:51;;;;;;;;;;;19.10;58.30;;;;;;5054756;28;1239;-70
2022/02/02 01:30:16;;;;;;;;;;;19.00;58.30;;;;;;5040053;28;1487;-70
2022/02/02 01:32:42;;;;;;;;;;;19.00;58.30;;;;;;5055815;28;1194;-70
2022/02/02 01:35:14;;;;;;;;;;;19.00;58.30;;;;;;5053938;28;1673;-69
2022/02/02 01:37:39;;;;;;;;;;;19.00;58.30;;;;;;5054376;28;1401;-70
2022/02/02 01:40:12;;;;;;;;;;;19.00;58.30;;;;;;5054195;28;1963;-70
2022/02/02 01:42:45;;;;;;;;;;;19.00;58.30;;;;;;5055525;28;1345;-70
2022/02/02 01:45:18;;;;;;;;;;;19.00;58.30;;;;;;5053994;28;1718;-70
2022/02/02 01:48:33;;;;;;;;;;;19.00;58.40;;;;;;5054047;28;1358;-70
2022/02/02 01:55:38;;;;;;;;;;;19.00;58.40;;;;;;5054963;28;1712;-71
2022/02/02 01:58:19;;;;;;;;;;;19.00;58.40;;;;;;5053909;28;1894;-70
2022/02/02 02:00:44;;;;;;;;;;;19.00;58.40;;;;;;5054022;28;1354;-70
2022/02/02 02:03:10;;;;;;;;;;;19.00;58.40;;;;;;5055175;28;1342;-70
2022/02/02 02:05:36;;;;;;;;;;;19.00;58.40;;;;;;5054058;28;1693;-70
2022/02/02 02:08:01;;;;;;;;;;;19.00;58.40;;;;;;5054646;28;1301;-71
2022/02/02 02:10:27;;;;;;;;;;;19.00;58.40;;;;;;5047343;28;1686;-70
2022/02/02 02:12:58;;;;;;;;;;;18.90;58.40;;;;;;5063140;28;1294;-70
2022/02/02 02:15:28;;;;;;;;;;;19.00;58.50;;;;;;5060820;28;1323;-70
2022/02/02 02:17:54;;;;;;;;;;;19.00;58.50;;;;;;5048601;28;1231;-70
2022/02/02 02:20:19;;;;;;;;;;;19.00;58.50;;;;;;5061014;28;1961;-70
2022/02/02 02:22:45;;;;;;;;;;;19.00;58.50;;;;;;5044543;28;1299;-71
2022/02/02 02:25:18;;;;;;;;;;;19.00;58.50;;;;;;5045033;28;1283;-70
2022/02/02 02:27:44;;;;;;;;;;;18.90;58.50;;;;;;5063180;28;1170;-71
2022/02/02 02:30:16;;;;;;;;;;;18.90;58.50;;;;;;5049541;28;1299;-70
2022/02/02 02:33:27;;;;;;;;;;;18.90;58.50;;;;;;5047122;28;1448;-72
2022/02/02 02:35:45;;;;;;;;;;;18.90;58.50;;;;;;5059520;28;1256;-72
2022/02/02 02:57:22;;;;;;;;;;;18.90;58.60;;;;;;5053345;28;1405;-72
2022/02/02 03:00:16;;;;;;;;;;;18.90;58.60;;;;;;5054039;28;1897;-72
2022/02/02 03:32:45;;;;;;;;;;;18.80;58.70;;;;;;5053668;28;1369;-72
2022/02/02 03:57:07;;;;;;;;;;;18.80;58.80;;;;;;5053273;28;1353;-70
2022/02/02 04:04:22;;;;;;;;;;;18.80;58.80;;;;;;5051997;28;1325;-70
2022/02/02 04:07:00;;;;;;;;;;;18.80;58.80;;;;;;5051717;28;1268;-70
2022/02/02 04:09:27;;;;;;;;;;;18.80;58.80;;;;;;5053204;28;1347;-70
2022/02/02 04:52:36;;;;;;;;;;;18.70;58.90;;;;;;5055957;28;1300;-71
2022/02/02 04:57:57;;;;;;;;;;;18.70;58.90;;;;;;5052536;28;1550;-71
2022/02/02 05:00:57;;;;;;;;;;;18.70;58.90;;;;;;5056314;28;1894;-72
2022/02/02 05:03:58;;;;;;;;;;;18.70;58.90;;;;;;5056258;28;1340;-71
2022/02/02 05:06:34;;;;;;;;;;;18.70;58.90;;;;;;5056227;28;1359;-70
2022/02/02 05:22:36;;;;;;;;;;;18.90;58.70;;;;;;5055698;28;1094;-70
2022/02/02 05:49:01;;;;;;;;;;;20.10;56.30;;;;;;5045231;28;1389;-69
2022/02/02 05:51:41;;;;;;;;;;;20.20;56.10;;;;;;5050341;28;1330;-69
2022/02/02 05:54:08;;;;;;;;;;;20.30;55.90;;;;;;5055683;28;1382;-70
2022/02/02 05:56:36;;;;;;;;;;;20.40;55.60;;;;;;5053846;28;1322;-69
2022/02/02 05:59:02;;;;;;;;;;;20.40;55.40;;;;;;5054095;28;1902;-69
2022/02/02 06:01:27;;;;;;;;;;;20.50;55.20;;;;;;5053750;28;1336;-69
2022/02/02 06:03:54;;;;;;;;;;;20.60;55.10;;;;;;5037460;28;1339;-69
2022/02/02 06:06:22;;;;;;;;;;;20.60;54.90;;;;;;5053262;28;1331;-69
2022/02/02 06:08:47;;;;;;;;;;;20.70;54.80;;;;;;5054114;28;1239;-69
2022/02/02 06:11:17;;;;;;;;;;;20.70;54.60;;;;;;5053903;28;1311;-70
2022/02/02 06:13:49;;;;;;;;;;;20.80;54.60;;;;;;5054976;28;1368;-69
2022/02/02 06:16:15;;;;;;;;;;;20.80;54.50;;;;;;5054787;28;1240;-69
2022/02/02 06:18:41;;;;;;;;;;;20.90;54.40;;;;;;5053655;28;1910;-69
2022/02/02 06:21:07;;;;;;;;;;;20.90;54.30;;;;;;5054983;28;1371;-69
2022/02/02 06:26:01;;;;;;;;;;;21.00;54.20;;;;;;5094515;22;2848;-66
2022/02/02 06:28:27;;;;;;;;;;;21.00;54.10;;;;;;5072590;28;1312;-66
2022/02/02 06:30:56;;;;;;;;;;;21.00;54.10;;;;;;5059637;28;1783;-67
2022/02/02 06:33:21;;;;;;;;;;;21.00;54.00;;;;;;5072066;28;1301;-66
2022/02/02 06:35:46;;;;;;;;;;;21.10;54.00;;;;;;5066308;28;1491;-68
2022/02/02 06:38:12;;;;;;;;;;;21.10;53.90;;;;;;5052911;28;1957;-69
2022/02/02 06:40:38;;;;;;;;;;;21.10;53.90;;;;;;5072657;28;1675;-70
2022/02/02 06:43:04;;;;;;;;;;;21.10;53.90;;;;;;5071153;28;1401;-68
2022/02/02 06:45:29;;;;;;;;;;;21.10;53.90;;;;;;5071976;28;1615;-67
2022/02/02 06:47:55;;;;;;;;;;;21.10;53.90;;;;;;5073785;28;1452;-69
2022/02/02 06:50:28;;;;;;;;;;;21.20;53.90;;;;;;5073870;28;1399;-70
2022/02/02 06:53:05;;;;;;;;;;;21.20;53.90;;;;;;5074415;28;1362;-70
2022/02/02 06:55:36;;;;;;;;;;;21.20;53.90;;;;;;5073769;28;1371;-65
2022/02/02 06:58:12;;;;;;;;;;;21.20;53.90;;;;;;5072376;28;1247;-67
2022/02/02 07:00:52;;;;;;;;;;;21.20;53.90;;;;;;5073496;28;1349;-67
2022/02/02 07:03:29;;;;;;;;;;;21.20;53.90;;;;;;5072303;28;1300;-66
2022/02/02 07:06:12;;;;;;;;;;;21.20;53.90;;;;;;5072671;28;1385;-65
2022/02/02 07:11:44;;;;;;;;;;;21.10;53.90;;;;;;5053539;28;1316;-65
2022/02/02 07:14:19;;;;;;;;;;;21.10;53.90;;;;;;5071877;28;1710;-66
2022/02/02 07:19:35;;;;;;;;;;;21.10;54.00;;;;;;5068090;28;1927;-66
2022/02/02 07:22:19;;;;;;;;;;;21.10;54.00;;;;;;5072947;28;1047;-65
2022/02/02 07:25:17;;;;;;;;;;;21.10;54.00;;;;;;5073214;28;1413;-66
2022/02/02 07:27:54;;;;;;;;;;;21.10;54.10;;;;;;5071836;28;1663;-65
2022/02/02 07:32:55;;;;;;;;;;;21.10;54.10;;;;;;5052590;28;1376;-69
2022/02/02 07:35:35;;;;;;;;;;;21.00;54.10;;;;;;5084794;27;1552;-67
2022/02/02 07:38:10;;;;;;;;;;;21.00;54.20;;;;;;5068698;28;1733;-67
2022/02/02 07:40:37;;;;;;;;;;;21.00;54.30;;;;;;5069567;28;1733;-70
2022/02/02 07:43:03;;;;;;;;;;;21.00;54.30;;;;;;5053634;28;1827;-68
2022/02/02 07:45:29;;;;;;;;;;;20.90;54.40;;;;;;5053554;28;1702;-68
2022/02/02 07:47:55;;;;;;;;;;;20.90;54.40;;;;;;5059250;28;1366;-68
2022/02/02 07:50:21;;;;;;;;;;;20.90;54.50;;;;;;5069275;28;1660;-69
2022/02/02 07:52:48;;;;;;;;;;;20.90;54.60;;;;;;5068748;28;1404;-68
2022/02/02 07:55:15;;;;;;;;;;;20.80;54.60;;;;;;5068285;28;1918;-67
2022/02/02 07:57:41;;;;;;;;;;;20.80;54.60;;;;;;5069402;28;1465;-67
2022/02/02 08:00:10;;;;;;;;;;;20.80;54.60;;;;;;5064277;28;1978;-66
2022/02/02 08:05:02;;;;;;;;;;;20.80;54.80;;;;;;5060188;28;1516;-66
2022/02/02 08:07:35;;;;;;;;;;;20.80;55.50;;;;;;5057079;28;1564;-67
2022/02/02 08:10:18;;;;;;;;;;;20.70;54.90;;;;;;5079889;28;1476;-66
2022/02/02 08:12:54;;;;;;;;;;;20.70;54.90;;;;;;5073280;28;1584;-67
2022/02/02 08:15:21;;;;;;;;;;;20.70;54.90;;;;;;5068465;28;1989;-66
2022/02/02 08:17:49;;;;;;;;;;;20.70;55.00;;;;;;5062632;28;1354;-67
2022/02/02 08:20:15;;;;;;;;;;;20.70;55.00;;;;;;5056014;28;1536;-67
2022/02/02 08:22:41;;;;;;;;;;;20.70;55.00;;;;;;5056964;28;1683;-67
2022/02/02 08:25:07;;;;;;;;;;;20.70;55.00;;;;;;5058464;28;1695;-67
2022/02/02 08:27:38;;;;;;;;;;;20.70;55.10;;;;;;5062691;28;2004;-67
2022/02/02 08:30:07;;;;;;;;;;;20.60;55.00;;;;;;5064278;28;1358;-66
2022/02/02 08:32:40;;;;;;;;;;;20.60;55.10;;;;;;5059573;28;1524;-66
2022/02/02 08:35:06;;;;;;;;;;;20.60;55.10;;;;;;5082179;28;1914;-67
2022/02/02 08:37:34;;;;;;;;;;;20.60;55.20;;;;;;5079241;28;1162;-67
2022/02/02 08:40:17;;;;;;;;;;;20.60;55.80;;;;;;5077982;28;1497;-66
2022/02/02 08:42:43;;;;;;;;;;;20.60;55.20;;;;;;5078835;28;1366;-66
2022/02/02 08:45:18;;;;;;;;;;;20.50;55.20;;;;;;5076114;28;1304;-66
2022/02/02 08:47:49;;;;;;;;;;;20.50;55.30;;;;;;5065638;28;1157;-65
2022/02/02 08:50:15;;;;;;;;;;;20.50;55.30;;;;;;5067827;28;1601;-65
2022/02/02 08:52:51;;;;;;;;;;;20.50;55.40;;;;;;5065837;28;1215;-66
2022/02/02 08:55:20;;;;;;;;;;;20.50;55.40;;;;;;5062354;28;1966;-67
2022/02/02 08:57:53;;;;;;;;;;;20.50;55.40;;;;;;5061910;28;1429;-66
2022/02/02 09:00:24;;;;;;;;;;;20.50;55.50;;;;;;5062119;28;1117;-66
2022/02/02 09:05:18;;;;;;;;;;;20.50;55.50;;;;;;5066876;28;1287;-66
2022/02/02 09:05:37;;;;;;;;;;;20.50;55.40;;;;;;5072739;28;1922;-67
2022/02/02 09:08:03;;;;;;;;;;;20.50;56.00;;;;;;5073111;28;1280;-67
2022/02/02 09:22:47;;;;;;;;;;;20.60;55.10;;;;;;5060466;28;2199;-67
2022/02/02 09:24:24;;;;;;;;;;;20.70;55.10;;;;;;5051808;28;1856;-66
2022/02/02 09:33:33;;;;;;;;;;;20.80;54.80;;;;;;5062834;28;1441;-67
2022/02/02 09:35:07;;;;;;;;;;;20.90;54.70;;;;;;5064482;28;1946;-67
2022/02/02 09:37:33;;;;;;;;;;;20.90;54.60;;;;;;5063270;28;1560;-67
2022/02/02 09:42:57;;;;;;;;;;;20.90;54.60;;;;;;5048218;28;2021;-67
2022/02/02 09:45:24;;;;;;;;;;;20.90;54.60;;;;;;5070412;28;1713;-68
2022/02/02 09:47:58;;;;;;;;;;;20.90;54.60;;;;;;5067559;28;1490;-67
2022/02/02 09:50:36;;;;;;;;;;;20.90;54.60;;;;;;5060048;28;1573;-67
2022/02/02 09:53:04;;;;;;;;;;;20.90;54.60;;;;;;5068228;28;1356;-67
2022/02/02 09:55:52;;;;;;;;;;;20.90;54.60;;;;;;5068420;28;1382;-67
2022/02/02 09:58:54;;;;;;;;;;;20.90;54.60;;;;;;5067694;28;1403;-68
2022/02/02 10:04:05;;;;;;;;;;;20.90;54.60;;;;;;5069912;28;1584;-67
2022/02/02 10:09:18;;;;;;;;;;;20.90;54.70;;;;;;5072695;28;1478;-67
2022/02/02 10:16:42;;;;;;;;;;;20.80;55.40;;;;;;5067756;28;1857;-67
2022/02/02 10:19:14;;;;;;;;;;;20.80;54.80;;;;;;5068708;28;1822;-67
2022/02/02 10:21:40;;;;;;;;;;;20.80;54.90;;;;;;5068370;28;1184;-68
2022/02/02 10:24:05;;;;;;;;;;;20.80;54.90;;;;;;5053448;28;2141;-68
2022/02/02 10:26:30;;;;;;;;;;;20.70;54.80;;;;;;5060255;28;2461;-68
2022/02/02 10:28:57;;;;;;;;;;;20.70;54.80;;;;;;5068078;28;2179;-67
2022/02/02 10:31:36;;;;;;;;;;;20.70;54.80;;;;;;5070508;28;1238;-67
2022/02/02 10:34:12;;;;;;;;;;;20.70;54.70;;;;;;5072889;28;1960;-67
2022/02/02 10:36:38;;;;;;;;;;;20.70;54.70;;;;;;5069348;28;1210;-67
2022/02/02 10:39:08;;;;;;;;;;;20.70;54.50;;;;;;5056074;28;1161;-68
2022/02/02 10:41:43;;;;;;;;;;;20.70;54.50;;;;;;5069512;28;1796;-68
2022/02/02 10:44:21;;;;;;;;;;;20.70;54.50;;;;;;5068711;28;1714;-68
2022/02/02 10:49:23;;;;;;;;;;;20.80;54.40;;;;;;5062464;28;1280;-67
2022/02/02 10:51:54;;;;;;;;;;;20.80;54.30;;;;;;5064029;28;3080;-68
2022/02/02 10:57:29;;;;;;;;;;;20.80;54.20;;;;;;5068467;28;1424;-70
2022/02/02 11:07:52;;;;;;;;;;;20.80;54.00;;;;;;5069954;28;1638;-67
2022/02/02 11:10:18;;;;;;;;;;;20.80;54.00;;;;;;5070710;28;1683;-69
2022/02/02 11:12:43;;;;;;;;;;;20.90;54.00;;;;;;5069088;28;1355;-69
2022/02/02 11:15:18;;;;;;;;;;;20.80;54.00;;;;;;5068082;28;1922;-68
2022/02/02 11:17:46;;;;;;;;;;;20.80;54.00;;;;;;5070977;28;1727;-69
2022/02/02 11:20:12;;;;;;;;;;;20.90;54.00;;;;;;5069790;28;1273;-69
2022/02/02 11:22:58;;;;;;;;;;;20.80;54.00;;;;;;5068956;28;1292;-68
2022/02/02 11:25:25;;;;;;;;;;;20.80;54.50;;;;;;5070029;28;1648;-69
2022/02/02 11:27:51;;;;;;;;;;;20.80;54.00;;;;;;5071016;28;1669;-68
2022/02/02 11:30:22;;;;;;;;;;;20.80;54.00;;;;;;5070701;28;1509;-68
2022/02/02 11:32:50;;;;;;;;;;;20.80;54.00;;;;;;5070237;28;1584;-68
2022/02/02 11:38:08;;;;;;;;;;;20.80;54.10;;;;;;5067321;28;2595;-68
2022/02/02 11:40:41;;;;;;;;;;;20.80;54.20;;;;;;5050864;28;1750;-68
2022/02/02 11:45:34;;;;;;;;;;;20.70;54.20;;;;;;5068878;28;1332;-68
2022/02/02 11:48:05;;;;;;;;;;;20.70;54.30;;;;;;5069490;28;1066;-68
2022/02/02 11:50:48;;;;;;;;;;;20.70;54.30;;;;;;5068485;28;1245;-68
2022/02/02 11:53:33;;;;;;;;;;;20.70;54.30;;;;;;5068615;28;1882;-69
2022/02/02 11:56:05;;;;;;;;;;;20.70;54.30;;;;;;5063315;28;2012;-68
2022/02/02 11:58:33;;;;;;;;;;;20.70;54.20;;;;;;5063478;28;1198;-68
2022/02/02 12:03:41;;;;;;;;;;;20.80;54.10;;;;;;5069592;28;1672;-68
2022/02/02 12:06:20;;;;;;;;;;;20.80;54.00;;;;;;5066817;28;1913;-68
2022/02/02 12:49:47;;;;;;;;;;;21.10;53.30;;;;;;5074191;22;3964;-68
2022/02/02 12:57:37;;;;;;;;;;;21.00;53.30;;;;;;5053499;28;1375;-66
2022/02/02 13:00:07;;;;;;;;;;;20.90;53.30;;;;;;5048359;28;1503;-68
2022/02/02 13:02:39;;;;;;;;;;;21.00;53.40;;;;;;5050005;28;1523;-66
2022/02/02 13:05:06;;;;;;;;;;;21.00;53.40;;;;;;5037331;28;1604;-67
2022/02/02 13:07:31;;;;;;;;;;;21.00;53.30;;;;;;5036297;28;1566;-69
2022/02/02 13:09:57;;;;;;;;;;;21.00;53.10;;;;;;5053000;28;1527;-67
2022/02/02 13:12:24;;;;;;;;;;;20.90;53.40;;;;;;5048536;28;1599;-66
2022/02/02 13:18:02;;;;;;;;;;;20.90;53.60;;;;;;5055106;28;1866;-66
2022/02/02 13:20:34;;;;;;;;;;;20.90;53.70;;;;;;5054165;28;1686;-66
2022/02/02 13:23:05;;;;;;;;;;;20.90;53.80;;;;;;5037836;28;1695;-67
2022/02/02 13:25:32;;;;;;;;;;;20.90;53.80;;;;;;5054250;28;1351;-68
2022/02/02 13:28:00;;;;;;;;;;;20.90;54.50;;;;;;5054472;28;1360;-67
2022/02/02 13:30:51;;;;;;;;;;;20.80;53.90;;;;;;5054056;28;1598;-68
2022/02/02 13:33:29;;;;;;;;;;;20.80;54.00;;;;;;5038431;28;1898;-68
2022/02/02 13:36:30;;;;;;;;;;;20.80;54.00;;;;;;5054085;28;1269;-68
2022/02/02 13:44:36;;;;;;;;;;;20.80;54.20;;;;;;5054253;28;1503;-68
2022/02/02 13:47:34;;;;;;;;;;;20.70;54.20;;;;;;5038006;28;1637;-67
2022/02/02 13:50:38;;;;;;;;;;;20.70;54.30;;;;;;5042113;28;1659;-67
2022/02/02 13:53:19;;;;;;;;;;;20.70;54.40;;;;;;5051900;28;1180;-66
2022/02/02 13:55:51;;;;;;;;;;;20.70;54.40;;;;;;5052289;28;1766;-67
2022/02/02 13:58:40;;;;;;;;;;;20.70;54.50;;;;;;5053610;28;1601;-66
2022/02/02 14:04:02;;;;;;;;;;;20.60;54.50;;;;;;5049169;28;1382;-67
2022/02/02 14:06:54;;;;;;;;;;;20.70;54.60;;;;;;5048698;28;1528;-69
2022/02/02 14:33:21;;;;;;;;;;;20.50;55.00;;;;;;5053463;28;1898;-67
2022/02/02 14:35:47;;;;;;;;;;;20.50;55.00;;;;;;5007710;28;1562;-67
2022/02/02 14:38:14;;;;;;;;;;;20.50;55.00;;;;;;5051304;28;1395;-67
2022/02/02 14:43:11;;;;;;;;;;;20.50;55.10;;;;;;5034943;28;1410;-67
2022/02/02 14:45:41;;;;;;;;;;;20.50;55.10;;;;;;5052774;28;1770;-67
2022/02/02 14:48:20;;;;;;;;;;;20.50;55.10;;;;;;5052675;28;1434;-66
2022/02/02 14:51:15;;;;;;;;;;;20.50;55.20;;;;;;5035272;28;1652;-68
2022/02/02 15:27:14;;;;;;;;;;;20.40;55.50;;;;;;5031500;28;1423;-66
2022/02/02 15:29:12;;;;;;;;;;;20.30;55.50;;;;;;5050796;28;1324;-66
2022/02/02 15:31:38;;;;;;;;;;;20.30;55.50;;;;;;5051878;28;1579;-66
2022/02/02 15:34:07;;;;;;;;;;;20.30;55.50;;;;;;5051944;28;1894;-69
2022/02/02 15:39:09;;;;;;;;;;;20.30;55.60;;;;;;5051648;28;1633;-68
2022/02/02 15:41:45;;;;;;;;;;;20.30;55.60;;;;;;5050805;28;2054;-68
2022/02/02 16:05:44;;;;;;;;;;;20.20;55.70;;;;;;5055030;28;1597;-67
2022/02/02 16:08:11;;;;;;;;;;;20.20;55.80;;;;;;5055806;28;1719;-68
2022/02/02 16:10:44;;;;;;;;;;;20.20;55.80;;;;;;5038556;28;1680;-68
2022/02/02 16:13:25;;;;;;;;;;;20.20;55.80;;;;;;5039166;28;1050;-68
2022/02/02 16:15:55;;;;;;;;;;;20.20;55.80;;;;;;5055199;28;1689;-67
2022/02/02 16:32:06;;;;;;;;;;;20.20;55.90;;;;;;5040903;28;1477;-69
2022/02/02 16:37:23;;;;;;;;;;;20.10;55.90;;;;;;5054901;28;1383;-67
2022/02/02 16:39:57;;;;;;;;;;;20.10;55.90;;;;;;5055883;28;1572;-68
2022/02/02 16:45:07;;;;;;;;;;;20.20;55.90;;;;;;5040396;28;1636;-70
2022/02/02 16:47:32;;;;;;;;;;;20.10;55.90;;;;;;5037580;28;1609;-68
2022/02/02 16:49:58;;;;;;;;;;;20.10;55.90;;;;;;5054712;28;1532;-69
2022/02/02 16:52:26;;;;;;;;;;;20.10;55.90;;;;;;5054733;28;1577;-69
2022/02/02 16:54:52;;;;;;;;;;;20.10;55.90;;;;;;5054930;28;1926;-69
2022/02/02 16:57:37;;;;;;;;;;;20.10;55.90;;;;;;5036663;28;1403;-69
2022/02/02 17:30:14;;;;;;;;;;;20.10;56.00;;;;;;5023184;28;1954;-69
2022/02/02 17:35:24;;;;;;;;;;;20.10;56.00;;;;;;5050699;28;1898;-69
2022/02/02 17:38:02;;;;;;;;;;;20.10;56.00;;;;;;5054128;28;1382;-67
2022/02/02 18:15:49;;;;;;;;;;;20.00;56.10;;;;;;5038671;28;1906;-69
2022/02/02 18:20:58;;;;;;;;;;;20.00;56.10;;;;;;5007634;28;1964;-69
2022/02/02 18:23:35;;;;;;;;;;;20.00;56.10;;;;;;5008047;28;1231;-68
2022/02/02 18:34:10;;;;;;;;;;;20.00;56.10;;;;;;5048776;28;1959;-67
2022/02/02 18:53:51;;;;;;;;;;;20.00;56.20;;;;;;5036487;28;1962;-66
2022/02/02 18:56:33;;;;;;;;;;;20.00;56.20;;;;;;5047966;28;1146;-66
2022/02/02 19:05:00;;;;;;;;;;;20.00;56.20;;;;;;5033948;28;1305;-65
2022/02/02 19:07:52;;;;;;;;;;;19.90;56.10;;;;;;5050770;28;1366;-67
2022/02/02 19:37:43;;;;;;;;;;;20.00;56.30;;;;;;5035714;28;1097;-68
2022/02/02 19:56:41;;;;;;;;;;;19.90;56.20;;;;;;5046255;28;1090;-69
2022/02/02 20:01:52;;;;;;;;;;;19.90;56.30;;;;;;5029212;28;2001;-69
2022/02/02 20:07:06;;;;;;;;;;;19.90;56.30;;;;;;5048745;28;1064;-71
2022/02/02 20:12:19;;;;;;;;;;;19.90;56.30;;;;;;5051443;28;1119;-70
2022/02/02 20:14:44;;;;;;;;;;;19.90;56.30;;;;;;5028418;28;1894;-69
2022/02/02 20:17:15;;;;;;;;;;;19.90;56.30;;;;;;5049893;28;1400;-68
2022/02/02 20:19:44;;;;;;;;;;;19.90;56.30;;;;;;5032350;28;1257;-68
2022/02/02 20:22:10;;;;;;;;;;;19.90;56.30;;;;;;5046769;28;1231;-66
2022/02/02 20:24:50;;;;;;;;;;;19.90;56.30;;;;;;5051849;28;1224;-70
2022/02/02 20:27:15;;;;;;;;;;;19.90;56.30;;;;;;5032867;28;1348;-69
2022/02/02 20:29:41;;;;;;;;;;;19.90;56.30;;;;;;5032143;28;1441;-70
2022/02/02 20:32:07;;;;;;;;;;;19.90;56.30;;;;;;5050082;28;1271;-69
2022/02/02 20:34:32;;;;;;;;;;;19.90;56.30;;;;;;5047681;28;1902;-67
2022/02/02 20:36:58;;;;;;;;;;;19.90;56.30;;;;;;5049116;28;1537;-69
2022/02/02 20:39:45;;;;;;;;;;;19.90;56.30;;;;;;5051645;28;1290;-66
2022/02/02 20:42:12;;;;;;;;;;;19.90;56.20;;;;;;5036226;28;1430;-68
2022/02/02 20:45:09;;;;;;;;;;;19.90;56.30;;;;;;5055879;28;1315;-66
2022/02/02 21:06:45;;;;;;;;;;;19.90;56.20;;;;;;5055178;28;1410;-67
2022/02/02 21:09:32;;;;;;;;;;;19.90;56.20;;;;;;5055507;28;1295;-69
2022/02/02 21:14:25;;;;;;;;;;;19.90;56.20;;;;;;5036851;28;1897;-70
2022/02/02 21:16:51;;;;;;;;;;;19.90;56.20;;;;;;5054912;28;1265;-70
2022/02/02 21:19:26;;;;;;;;;;;19.90;56.20;;;;;;5054341;28;1331;-69
2022/02/02 21:21:58;;;;;;;;;;;19.90;56.20;;;;;;5055065;28;1262;-70
2022/02/02 21:29:23;;;;;;;;;;;19.90;56.20;;;;;;5054999;28;1303;-68
2022/02/02 21:31:49;;;;;;;;;;;20.00;56.20;;;;;;5036889;28;1330;-69
2022/02/02 21:34:14;;;;;;;;;;;19.90;56.10;;;;;;5053818;28;1902;-69
2022/02/02 21:36:40;;;;;;;;;;;19.90;56.10;;;;;;5036335;28;1266;-68
2022/02/02 21:39:08;;;;;;;;;;;20.00;56.10;;;;;;5054777;28;1356;-68
2022/02/02 21:41:36;;;;;;;;;;;20.00;56.10;;;;;;5036557;28;1080;-68
2022/02/02 21:44:05;;;;;;;;;;;20.00;56.10;;;;;;5054334;28;1053;-67
2022/02/02 21:46:30;;;;;;;;;;;20.00;56.00;;;;;;5036100;28;1329;-67
2022/02/02 21:48:57;;;;;;;;;;;20.00;56.00;;;;;;5035785;28;2245;-68
2022/02/02 21:51:27;;;;;;;;;;;20.00;56.10;;;;;;5054093;28;1103;-67
2022/02/02 21:53:53;;;;;;;;;;;20.00;56.00;;;;;;5053752;28;1961;-67
2022/02/02 21:56:19;;;;;;;;;;;20.00;56.00;;;;;;5053183;28;1355;-67
2022/02/02 21:58:44;;;;;;;;;;;20.00;56.10;;;;;;5036264;28;1296;-67
2022/02/02 22:01:10;;;;;;;;;;;20.00;56.10;;;;;;5054074;28;1382;-67
2022/02/02 22:03:35;;;;;;;;;;;20.00;56.10;;;;;;5052807;28;1334;-68
2022/02/02 22:06:01;;;;;;;;;;;19.90;56.10;;;;;;5053149;28;1285;-68
2022/02/02 22:08:26;;;;;;;;;;;19.90;56.10;;;;;;5036002;28;1353;-67
2022/02/02 22:10:51;;;;;;;;;;;19.90;56.10;;;;;;5053642;28;1300;-69
2022/02/02 22:13:18;;;;;;;;;;;19.90;56.20;;;;;;5053597;28;981;-69
2022/02/02 22:15:52;;;;;;;;;;;20.00;56.20;;;;;;5053203;28;1898;-69
2022/02/02 22:18:18;;;;;;;;;;;19.90;56.20;;;;;;5053254;28;1375;-68
2022/02/02 22:20:44;;;;;;;;;;;19.90;56.20;;;;;;5053411;28;1275;-66
2022/02/02 22:23:10;;;;;;;;;;;19.90;56.30;;;;;;5035841;28;1295;-68
2022/02/02 22:25:35;;;;;;;;;;;19.90;56.30;;;;;;5053146;28;1402;-68
2022/02/02 22:28:01;;;;;;;;;;;19.90;56.30;;;;;;5053408;28;1280;-67
2022/02/02 22:30:26;;;;;;;;;;;19.80;56.30;;;;;;5035118;28;1343;-66
2022/02/02 22:32:52;;;;;;;;;;;19.80;56.40;;;;;;5053556;28;1064;-66
2022/02/02 22:35:17;;;;;;;;;;;19.80;56.40;;;;;;5052829;28;1960;-67
2022/02/02 22:37:43;;;;;;;;;;;19.80;56.40;;;;;;5035524;28;1487;-68
2022/02/02 22:40:08;;;;;;;;;;;19.80;56.50;;;;;;5052925;28;1253;-68
2022/02/02 22:42:35;;;;;;;;;;;19.80;56.50;;;;;;5053282;28;1052;-67
2022/02/02 22:45:03;;;;;;;;;;;19.80;56.50;;;;;;5053485;28;1372;-68
2022/02/02 22:47:30;;;;;;;;;;;19.80;56.60;;;;;;5052030;28;1346;-69
2022/02/02 22:49:56;;;;;;;;;;;19.80;56.60;;;;;;5052495;28;1303;-66
2022/02/02 22:52:21;;;;;;;;;;;19.80;56.60;;;;;;5034861;28;1410;-66
2022/02/02 22:54:47;;;;;;;;;;;19.70;56.60;;;;;;5035091;28;1902;-66
2022/02/02 22:57:12;;;;;;;;;;;19.70;56.60;;;;;;5034511;28;1379;-67
2022/02/02 22:59:41;;;;;;;;;;;19.70;56.70;;;;;;5035140;28;1448;-66
2022/02/02 23:02:50;;;;;;;;;;;19.70;56.70;;;;;;5053402;28;1298;-66
2022/02/02 23:04:56;;;;;;;;;;;19.70;56.70;;;;;;5043559;28;1357;-66
2022/02/02 23:07:21;;;;;;;;;;;19.70;56.80;;;;;;5052280;28;1265;-65
2022/02/02 23:09:48;;;;;;;;;;;19.70;56.80;;;;;;5052463;28;1460;-67
2022/02/02 23:12:14;;;;;;;;;;;19.70;56.80;;;;;;5052585;28;1037;-66
2022/02/02 23:14:42;;;;;;;;;;;19.70;57.50;;;;;;5052446;28;1914;-66
2022/02/02 23:17:09;;;;;;;;;;;19.70;56.90;;;;;;5052082;28;1255;-66
2022/02/02 23:19:38;;;;;;;;;;;19.60;57.40;;;;;;5035235;28;1419;-66
2022/02/02 23:22:03;;;;;;;;;;;19.60;56.90;;;;;;5052687;28;1361;-69
2022/02/02 23:24:31;;;;;;;;;;;19.60;57.00;;;;;;5053431;28;1415;-66
2022/02/02 23:26:56;;;;;;;;;;;19.60;57.00;;;;;;5034020;28;1108;-67
2022/02/02 23:29:22;;;;;;;;;;;19.60;57.00;;;;;;5034626;28;1231;-68
2022/02/02 23:31:47;;;;;;;;;;;19.60;57.00;;;;;;5017803;28;1323;-67
2022/02/02 23:34:13;;;;;;;;;;;19.60;57.10;;;;;;5034381;28;1910;-67
2022/02/02 23:36:39;;;;;;;;;;;19.60;57.10;;;;;;5051681;28;1120;-67
2022/02/02 23:39:04;;;;;;;;;;;19.60;57.10;;;;;;5034817;28;1349;-67
2022/02/02 23:42:13;;;;;;;;;;;19.50;57.10;;;;;;5034715;28;1060;-66
2022/02/02 23:44:27;;;;;;;;;;;19.60;57.20;;;;;;5051818;28;1402;-67
2022/02/02 23:46:53;;;;;;;;;;;19.50;57.10;;;;;;5051292;28;1350;-68
2022/02/02 23:49:22;;;;;;;;;;;19.50;57.20;;;;;;5034638;28;1284;-69
2022/02/02 23:51:48;;;;;;;;;;;19.50;57.20;;;;;;5034883;28;1295;-66
2022/02/02 23:54:14;;;;;;;;;;;19.50;57.20;;;;;;5034218;28;1910;-67
2022/02/02 23:59:31;;;;;;;;;;;19.50;57.30;;;;;;5037143;28;1340;-66
